createdAt,value
2023-05-12T11:18:20.590Z,42.8910
2023-05-12T11:19:22.366Z,43.5634
2023-05-12T11:20:24.322Z,44.5345
2023-05-12T11:21:26.224Z,44.7605
2023-05-12T11:22:28.253Z,44.4543
2023-05-12T11:46:50.653Z,45.4109
2023-05-12T11:47:52.566Z,45.5276
2023-05-12T11:48:54.447Z,45.5684
2023-05-12T11:49:56.424Z,45.5267
2023-05-12T11:50:58.289Z,45.4949
2023-05-12T11:52:00.190Z,45.4345
2023-05-12T11:53:02.129Z,45.4098
2023-05-12T11:54:04.041Z,45.4358
2023-05-12T11:55:06.189Z,45.3382
2023-05-12T11:56:07.897Z,45.2078
2023-05-12T11:57:09.800Z,45.0973
2023-05-12T11:58:11.725Z,44.9558
2023-05-12T11:59:13.655Z,44.8431
2023-05-12T12:00:15.574Z,44.7818
2023-05-12T12:01:17.600Z,44.6012
2023-05-12T12:02:19.466Z,44.5129
2023-05-12T12:03:21.481Z,44.6427
2023-05-12T12:04:23.285Z,44.6541
2023-05-12T12:05:25.177Z,44.5907
2023-05-12T12:06:27.159Z,44.4662
2023-05-12T12:07:29.000Z,44.3602
2023-05-12T12:08:30.941Z,44.2197
2023-05-12T12:09:32.850Z,44.0312
2023-05-12T12:10:34.751Z,44.0029
2023-05-12T12:11:36.667Z,43.9185
2023-05-12T12:12:38.752Z,43.8675
2023-05-12T12:13:40.506Z,43.7938
2023-05-12T12:14:42.467Z,43.7118
2023-05-12T12:15:44.376Z,43.7539
2023-05-12T12:16:46.270Z,43.8340
2023-05-12T12:17:48.475Z,43.6891
2023-05-12T12:18:50.139Z,43.5489
2023-05-12T12:19:52.020Z,43.6491
2023-05-12T12:20:53.951Z,43.6075
2023-05-12T12:21:55.866Z,43.5979
2023-05-12T12:22:57.782Z,43.4676
2023-05-12T12:23:59.808Z,43.1893
2023-05-12T12:25:01.605Z,43.1989
2023-05-12T12:26:03.544Z,43.2957
2023-05-12T12:27:05.454Z,43.3393
2023-05-12T12:28:07.369Z,43.5076
2023-05-12T12:29:09.291Z,43.5272
2023-05-12T12:30:11.433Z,43.6756
2023-05-12T12:31:13.113Z,43.8111
2023-05-12T12:32:15.056Z,44.0066
2023-05-12T12:33:19.649Z,43.6768
2023-05-12T12:34:18.868Z,43.4748
2023-05-12T12:35:21.019Z,43.1945
2023-05-12T12:36:22.846Z,42.9660
2023-05-12T12:37:24.634Z,42.7904
2023-05-12T12:38:26.546Z,42.6009
2023-05-12T12:39:28.480Z,42.4986
2023-05-12T12:40:30.392Z,42.4304
2023-05-12T12:41:32.305Z,42.1643
2023-05-12T12:42:34.369Z,42.0326
2023-05-12T12:43:36.144Z,41.8857
2023-05-12T12:44:38.064Z,41.9705
2023-05-12T12:45:39.996Z,41.9639
2023-05-12T12:46:41.957Z,42.0182
2023-05-12T12:47:43.869Z,42.3304
2023-05-12T12:48:45.860Z,42.2227
2023-05-12T12:49:47.665Z,42.0294
2023-05-12T12:50:49.592Z,42.0411
2023-05-12T12:51:51.510Z,41.8953
2023-05-12T12:52:53.440Z,41.9943
2023-05-12T12:53:55.349Z,41.9701
2023-05-12T12:54:57.365Z,41.7995
2023-05-12T12:55:59.173Z,41.6634
2023-05-12T12:57:01.105Z,41.5012
2023-05-12T12:58:03.011Z,41.4537
2023-05-12T12:59:04.947Z,41.3223
2023-05-12T13:00:06.970Z,41.4457
2023-05-12T13:01:08.808Z,41.4440
2023-05-12T13:02:10.723Z,41.4803
2023-05-12T13:03:12.638Z,41.4679
2023-05-12T13:04:14.519Z,41.6799
2023-05-12T13:05:16.515Z,41.5395
2023-05-12T13:06:18.474Z,42.0964
2023-05-12T13:07:20.275Z,42.2118
2023-05-12T13:08:22.204Z,42.3884
2023-05-12T13:09:24.122Z,41.9844
2023-05-12T13:10:26.048Z,41.7513
2023-05-12T13:11:28.068Z,41.5886
2023-05-12T13:12:29.873Z,41.4995
2023-05-12T13:13:31.781Z,41.3956
2023-05-12T13:14:33.706Z,41.3414
2023-05-12T13:15:35.621Z,41.4188
2023-05-12T13:16:37.557Z,41.3405
2023-05-12T13:17:39.588Z,41.1869
2023-05-12T13:18:41.425Z,40.9961
2023-05-12T13:19:43.302Z,41.0015
2023-05-12T13:20:45.233Z,40.8495
2023-05-12T13:21:47.137Z,40.8136
2023-05-12T13:22:49.062Z,40.8914
2023-05-12T13:23:51.127Z,40.8166
2023-05-12T13:24:52.899Z,40.7658
2023-05-12T13:25:54.800Z,40.6872
2023-05-12T13:26:56.745Z,40.6992
2023-05-12T13:27:58.640Z,40.6623
2023-05-12T13:29:00.567Z,41.4259
2023-05-12T13:30:02.597Z,40.8817
2023-05-12T13:31:04.438Z,40.7666
2023-05-12T13:32:06.323Z,40.8535
2023-05-12T13:33:08.307Z,41.1753
2023-05-12T13:34:10.169Z,41.2124
2023-05-12T13:35:12.071Z,41.1529
2023-05-12T13:36:14.104Z,41.1294
2023-05-12T13:37:15.922Z,40.9399
2023-05-12T13:38:17.831Z,40.9113
2023-05-12T13:39:19.911Z,41.0507
2023-05-12T13:40:21.659Z,41.4005
2023-05-12T13:41:23.626Z,41.6102
2023-05-12T13:42:25.608Z,41.7293
2023-05-12T13:43:27.431Z,41.8361
2023-05-12T13:44:29.332Z,41.7725
2023-05-12T13:45:31.270Z,41.5959
2023-05-12T13:46:33.225Z,41.5998
2023-05-12T13:47:35.137Z,41.3673
2023-05-12T13:48:37.159Z,41.4210
2023-05-12T13:49:38.929Z,41.4281
2023-05-12T13:50:40.859Z,41.2324
2023-05-12T13:51:42.768Z,41.2414
2023-05-12T13:52:44.669Z,41.1255
2023-05-12T13:53:46.607Z,41.1582
2023-05-12T13:54:48.625Z,40.8773
2023-05-12T13:55:50.500Z,41.0139
2023-05-12T13:56:52.335Z,41.1269
2023-05-12T13:57:54.250Z,41.1751
2023-05-12T13:58:56.191Z,41.0037
2023-05-12T13:59:58.219Z,40.9949
2023-05-12T14:01:00.007Z,40.9130
2023-05-12T14:02:02.099Z,40.6156
2023-05-12T14:03:03.904Z,40.6379
2023-05-12T14:04:05.781Z,40.6807
2023-05-12T14:05:07.797Z,40.5715
2023-05-12T14:06:09.731Z,40.7604
2023-05-12T14:07:11.525Z,40.7537
2023-05-12T14:08:13.426Z,40.6515
2023-05-12T14:09:15.372Z,40.5942
2023-05-12T14:10:17.272Z,40.5216
2023-05-12T14:11:19.266Z,40.6538
2023-05-12T14:12:21.739Z,40.5874
2023-05-12T14:13:23.021Z,40.6699
2023-05-12T14:14:24.962Z,40.8073
2023-05-12T14:15:40.103Z,40.8548
2023-05-12T14:16:28.804Z,40.7869
2023-05-12T14:17:30.863Z,40.5624
2023-05-12T14:18:32.661Z,40.4116
2023-05-12T14:19:34.547Z,40.6644
2023-05-12T14:20:36.451Z,40.8990
2023-05-12T14:21:38.392Z,41.0218
2023-05-12T14:22:40.307Z,41.2552
2023-05-12T14:23:42.335Z,41.4555
2023-05-12T14:24:44.127Z,41.5743
2023-05-12T14:25:46.070Z,41.5167
2023-05-12T14:26:48.048Z,41.4381
2023-05-12T14:27:50.123Z,41.3672
2023-05-12T14:28:51.820Z,41.1861
2023-05-12T14:29:53.898Z,40.9361
2023-05-12T14:30:55.673Z,40.9407
2023-05-12T14:31:57.638Z,40.9546
2023-05-12T14:32:59.528Z,40.9233
2023-05-12T14:34:01.436Z,40.8292
2023-05-12T14:35:03.335Z,40.7316
2023-05-12T14:36:07.831Z,40.8101
2023-05-12T14:37:07.283Z,41.0302
2023-05-12T14:38:09.106Z,41.1811
2023-05-12T14:39:11.028Z,41.3967
2023-05-12T14:40:12.924Z,41.5855
2023-05-12T14:41:14.858Z,41.7543
2023-05-12T14:42:16.870Z,41.9509
2023-05-12T14:43:18.700Z,42.0592
2023-05-12T14:44:20.625Z,42.2001
2023-05-12T14:45:22.848Z,42.2673
2023-05-12T14:46:24.472Z,42.3477
2023-05-12T14:47:26.383Z,42.5693
2023-05-12T14:48:28.385Z,42.6922
2023-05-12T14:49:30.241Z,42.7127
2023-05-12T14:50:32.135Z,42.6316
2023-05-12T14:51:34.042Z,42.5909
2023-05-12T14:52:35.956Z,42.5661
2023-05-12T14:53:37.976Z,42.6121
2023-05-12T14:54:39.812Z,42.6840
2023-05-12T14:55:41.728Z,42.7290
2023-05-12T14:56:43.671Z,42.8326
2023-05-12T14:57:45.552Z,42.8220
2023-05-12T14:58:47.474Z,42.9304
2023-05-12T14:59:49.503Z,42.9802
2023-05-12T15:00:51.354Z,42.9811
2023-05-12T15:01:53.247Z,42.9943
2023-05-12T15:02:55.233Z,43.0983
2023-05-12T15:03:57.068Z,43.1553
2023-05-12T15:04:59.097Z,43.1838
2023-05-12T15:07:02.845Z,43.2007
2023-05-12T15:08:04.761Z,43.1834
2023-05-12T15:09:06.681Z,43.1542
2023-05-12T15:10:08.599Z,43.0708
2023-05-12T15:11:10.605Z,43.0209
2023-05-12T15:12:12.467Z,42.9629
2023-05-12T15:13:14.365Z,42.9079
2023-05-12T15:14:16.291Z,42.7877
2023-05-12T15:15:18.355Z,42.6662
2023-05-12T15:16:20.265Z,42.6467
2023-05-12T15:17:22.057Z,42.6304
2023-05-12T15:18:24.058Z,42.5729
2023-05-12T15:19:25.904Z,42.5288
2023-05-12T15:20:27.814Z,42.4758
2023-05-12T15:21:29.744Z,42.3561
2023-05-12T15:22:31.669Z,42.3400
2023-05-12T15:23:33.576Z,42.3219
2023-05-12T15:24:35.482Z,42.3274
2023-05-12T15:25:37.409Z,42.2720
2023-05-12T15:26:40.249Z,42.3197
2023-05-12T15:27:41.254Z,42.3524
2023-05-12T15:28:43.178Z,42.1700
2023-05-12T15:29:45.079Z,42.0984
2023-05-12T15:30:47.025Z,42.0696
2023-05-12T15:31:49.028Z,41.9855
2023-05-12T15:32:50.881Z,42.0877
2023-05-12T15:33:52.794Z,42.2601
2023-05-12T15:34:54.762Z,42.4095
2023-05-12T15:35:56.604Z,42.4619
2023-05-12T15:36:58.541Z,42.4755
2023-05-12T15:38:00.466Z,42.4618
2023-05-12T15:39:02.427Z,42.4731
2023-05-12T15:40:04.313Z,42.5387
2023-05-12T15:41:06.216Z,42.5270
2023-05-12T15:42:08.539Z,42.4477
2023-05-12T15:43:10.054Z,42.4421
2023-05-12T15:44:11.969Z,42.5116
2023-05-12T15:45:13.899Z,42.5642
2023-05-12T15:46:15.835Z,42.5513
2023-05-12T15:47:17.721Z,42.6535
2023-05-12T15:48:19.691Z,42.7409
2023-05-12T15:49:21.639Z,42.8664
2023-05-12T15:50:23.550Z,42.9680
2023-05-12T15:51:25.485Z,43.1483
2023-05-12T15:52:27.405Z,43.2014
2023-05-12T15:53:29.322Z,43.2308
2023-05-12T15:54:31.264Z,43.1787
2023-05-12T15:55:33.169Z,43.1639
2023-05-12T15:56:35.087Z,43.1603
2023-05-12T15:57:36.998Z,43.2530
2023-05-12T15:58:38.933Z,43.2198
2023-05-12T15:59:40.859Z,43.2388
2023-05-12T16:00:42.795Z,43.1325
2023-05-12T16:01:44.683Z,43.0981
2023-05-12T16:02:46.670Z,43.2479
2023-05-12T16:03:48.575Z,43.4233
2023-05-12T16:04:50.462Z,43.5078
2023-05-12T16:05:52.361Z,43.6149
2023-05-12T16:06:54.359Z,43.7427
2023-05-12T16:07:56.188Z,43.7847
2023-05-12T16:08:58.125Z,43.8422
2023-05-12T16:10:00.065Z,43.6993
2023-05-12T16:11:01.990Z,43.5467
2023-05-12T16:12:03.888Z,43.5484
2023-05-12T16:13:05.789Z,43.6464
2023-05-12T16:14:07.711Z,43.5968
2023-05-12T16:15:09.659Z,43.5537
2023-05-12T16:16:11.572Z,43.5931
2023-05-12T16:17:13.491Z,43.5783
2023-05-12T16:18:15.450Z,43.7200
2023-05-12T16:19:17.314Z,43.8919
2023-05-12T16:20:19.248Z,44.0301
2023-05-12T16:21:21.170Z,44.0793
2023-05-12T16:22:23.090Z,44.0736
2023-05-12T16:23:25.001Z,44.0317
2023-05-12T16:24:26.911Z,44.0025
2023-05-12T16:25:28.844Z,44.0166
2023-05-12T16:26:30.768Z,44.0925
2023-05-12T16:27:32.681Z,44.1086
2023-05-12T16:28:34.609Z,44.0062
2023-05-12T16:29:36.534Z,43.9909
2023-05-12T16:30:38.458Z,43.9778
2023-05-12T16:31:40.402Z,43.9135
2023-05-12T16:32:42.334Z,43.8812
2023-05-12T16:33:44.217Z,43.8961
2023-05-12T16:34:46.124Z,43.9148
2023-05-12T16:35:48.044Z,43.9875
2023-05-12T16:36:49.964Z,44.0303
2023-05-12T16:37:51.898Z,44.0377
2023-05-12T16:38:53.836Z,44.0799
2023-05-12T16:39:55.728Z,44.0821
2023-05-12T16:40:57.657Z,44.0695
2023-05-12T16:41:59.574Z,44.0965
2023-05-12T16:43:01.505Z,44.1128
2023-05-12T16:44:03.428Z,44.1376
2023-05-12T16:45:05.360Z,44.1234
2023-05-12T16:46:07.281Z,44.1369
2023-05-12T16:47:09.186Z,44.1127
2023-05-12T16:48:11.121Z,44.0688
2023-05-12T16:49:13.039Z,44.0944
2023-05-12T16:50:14.959Z,44.0312
2023-05-12T16:51:16.877Z,44.0093
2023-05-12T16:52:18.792Z,44.0450
2023-05-12T16:53:20.712Z,44.0195
2023-05-12T16:54:22.798Z,44.0677
2023-05-12T16:55:24.538Z,44.0968
2023-05-12T16:56:26.512Z,44.0923
2023-05-12T16:57:28.396Z,44.0779
2023-05-12T16:58:30.316Z,44.0883
2023-05-12T16:59:32.240Z,44.0264
2023-05-12T17:00:34.140Z,43.9804
2023-05-12T17:01:36.169Z,44.0432
2023-05-12T17:02:38.058Z,44.0595
2023-05-12T17:03:40.030Z,44.1186
2023-05-12T17:04:41.808Z,44.1219
2023-05-12T17:05:43.730Z,44.0710
2023-05-12T17:06:45.654Z,44.0769
2023-05-12T17:07:47.622Z,44.1570
2023-05-12T17:08:49.518Z,44.1558
2023-05-12T17:09:51.426Z,44.1088
2023-05-12T17:10:53.342Z,44.1711
2023-05-12T17:11:55.251Z,44.2232
2023-05-12T17:12:57.185Z,44.2101
2023-05-12T17:13:59.119Z,44.2235
2023-05-12T17:15:07.638Z,44.2375
2023-05-12T17:16:02.972Z,44.1938
2023-05-12T17:17:04.886Z,44.1047
2023-05-12T17:18:06.884Z,44.0131
2023-05-12T17:20:10.616Z,43.9151
2023-05-12T17:21:12.542Z,44.0025
2023-05-12T17:22:14.466Z,44.0879
2023-05-12T17:23:16.382Z,44.2162
2023-05-12T17:24:18.294Z,44.2360
2023-05-12T17:25:20.426Z,44.2938
2023-05-12T17:26:22.143Z,44.3523
2023-05-12T17:27:24.067Z,44.3212
2023-05-12T17:28:25.982Z,44.2729
2023-05-12T17:29:27.886Z,44.3047
2023-05-12T17:30:29.804Z,44.3585
2023-05-12T17:31:31.790Z,44.3493
2023-05-12T17:32:33.726Z,44.2395
2023-05-12T17:33:35.578Z,44.2418
2023-05-12T17:34:37.496Z,44.1515
2023-05-12T17:35:39.416Z,43.9945
2023-05-12T17:36:41.324Z,44.0509
2023-05-12T17:37:43.281Z,44.1257
2023-05-12T17:38:45.183Z,44.0162
2023-05-12T17:39:47.084Z,43.9468
2023-05-12T17:40:49.012Z,43.9806
2023-05-12T17:41:50.933Z,43.8968
2023-05-12T17:42:52.966Z,43.7600
2023-05-12T17:43:54.770Z,43.6826
2023-05-12T17:44:56.699Z,43.6404
2023-05-12T17:45:58.599Z,43.6531
2023-05-12T17:47:00.542Z,43.6506
2023-05-12T17:48:02.517Z,43.6271
2023-05-12T17:49:04.371Z,43.6674
2023-05-12T17:50:06.295Z,43.6165
2023-05-12T17:51:08.198Z,43.6179
2023-05-12T17:52:10.117Z,43.5993
2023-05-12T17:53:12.033Z,43.6308
2023-05-12T17:54:13.954Z,43.5920
2023-05-12T17:55:15.873Z,43.5782
2023-05-12T17:56:17.809Z,43.6788
2023-05-12T17:57:19.704Z,43.7091
2023-05-12T17:58:21.628Z,43.5008
2023-05-12T17:59:23.551Z,43.3306
2023-05-12T18:00:25.462Z,43.3686
2023-05-12T18:01:27.469Z,43.5115
2023-05-12T18:02:29.452Z,43.5441
2023-05-12T18:03:31.266Z,43.4803
2023-05-12T18:04:33.153Z,43.4229
2023-05-12T18:05:36.506Z,43.4404
2023-05-12T18:06:36.989Z,43.3509
2023-05-12T18:07:38.908Z,43.1950
2023-05-12T18:08:40.834Z,43.0088
2023-05-12T18:09:42.730Z,42.9712
2023-05-12T18:10:44.663Z,42.9539
2023-05-12T18:11:46.587Z,42.9751
2023-05-12T18:12:48.511Z,42.9879
2023-05-12T18:13:50.403Z,43.0412
2023-05-12T18:14:52.337Z,43.2407
2023-05-12T18:15:54.266Z,43.2450
2023-05-12T18:16:56.230Z,43.2238
2023-05-12T18:17:58.118Z,43.2905
2023-05-12T18:19:00.014Z,43.2819
2023-05-12T18:20:01.920Z,43.2053
2023-05-12T18:21:03.857Z,43.2263
2023-05-12T18:22:05.746Z,43.1737
2023-05-12T18:23:07.685Z,43.1780
2023-05-12T18:24:09.576Z,43.1590
2023-05-12T18:25:11.508Z,43.2310
2023-05-12T18:26:13.464Z,43.3190
2023-05-12T18:27:15.362Z,43.4266
2023-05-12T18:28:17.254Z,43.5344
2023-05-12T18:29:19.170Z,43.6092
2023-05-12T18:30:21.113Z,43.6181
2023-05-12T18:31:23.046Z,43.6361
2023-05-12T18:32:26.312Z,43.6131
2023-05-12T18:33:26.857Z,43.7992
2023-05-12T18:34:28.754Z,43.8953
2023-05-12T18:35:30.676Z,43.8250
2023-05-12T18:36:32.620Z,43.7850
2023-05-12T18:37:34.522Z,43.8066
2023-05-12T18:38:36.454Z,43.8764
2023-05-12T18:39:38.372Z,43.9475
2023-05-12T18:40:40.270Z,43.9237
2023-05-12T18:41:42.180Z,43.9725
2023-05-12T18:42:44.158Z,43.9817
2023-05-12T18:43:46.048Z,44.0745
2023-05-12T18:44:47.943Z,44.1605
2023-05-12T18:45:49.871Z,44.1797
2023-05-12T18:46:51.839Z,44.2182
2023-05-12T18:47:53.716Z,44.2788
2023-05-12T18:48:55.646Z,44.2105
2023-05-12T18:49:57.555Z,44.1877
2023-05-12T18:50:59.463Z,44.1076
2023-05-12T18:52:01.399Z,44.0865
2023-05-12T18:53:03.320Z,44.1854
2023-05-12T18:54:05.235Z,44.2718
2023-05-12T18:55:07.176Z,44.3285
2023-05-12T18:56:09.064Z,44.3634
2023-05-12T18:57:10.993Z,44.3055
2023-05-12T18:58:12.898Z,44.3583
2023-05-12T18:59:14.838Z,44.3350
2023-05-12T19:00:16.758Z,44.2667
2023-05-12T19:01:18.738Z,44.2640
2023-05-12T19:02:20.600Z,44.3782
2023-05-12T19:03:22.503Z,44.4491
2023-05-12T19:04:24.431Z,44.4649
2023-05-12T19:05:26.387Z,44.5201
2023-05-12T19:06:28.281Z,44.5493
2023-05-12T19:07:30.216Z,44.6185
2023-05-12T19:08:32.103Z,44.7417
2023-05-12T19:09:34.027Z,44.7320
2023-05-12T19:10:38.611Z,44.7819
2023-05-12T19:11:37.874Z,44.7423
2023-05-12T19:12:39.805Z,44.7095
2023-05-12T19:13:41.718Z,44.6628
2023-05-12T19:14:43.629Z,44.7047
2023-05-12T19:15:45.596Z,44.7156
2023-05-12T19:16:47.544Z,44.8180
2023-05-12T19:17:49.420Z,44.9277
2023-05-12T19:18:51.400Z,44.9289
2023-05-12T19:19:53.235Z,44.9719
2023-05-12T19:20:55.139Z,44.8942
2023-05-12T19:21:57.060Z,44.8453
2023-05-12T19:22:58.998Z,44.9582
2023-05-12T19:24:00.905Z,44.9229
2023-05-12T19:25:02.825Z,44.9285
2023-05-12T19:26:04.724Z,44.9457
2023-05-12T19:27:06.640Z,44.9752
2023-05-12T19:28:08.607Z,44.9819
2023-05-12T19:29:10.514Z,44.8914
2023-05-12T19:30:12.415Z,44.9597
2023-05-12T19:31:14.323Z,45.0907
2023-05-12T19:32:16.339Z,45.2176
2023-05-12T19:33:18.199Z,45.2748
2023-05-12T19:34:20.100Z,45.3153
2023-05-12T19:35:22.205Z,45.4381
2023-05-12T19:36:23.925Z,45.4791
2023-05-12T19:37:25.849Z,45.3910
2023-05-12T19:38:27.741Z,45.4177
2023-05-12T19:39:29.677Z,45.5173
2023-05-12T19:40:31.711Z,45.5753
2023-05-12T19:41:33.510Z,45.5753
2023-05-12T19:42:35.414Z,45.4766
2023-05-12T19:43:37.337Z,45.5969
2023-05-12T19:44:39.285Z,45.7010
2023-05-12T19:45:41.200Z,45.8346
2023-05-12T19:46:43.103Z,45.9136
2023-05-12T19:47:45.020Z,45.9744
2023-05-12T19:48:46.922Z,45.9669
2023-05-12T19:49:48.854Z,45.9584
2023-05-12T19:50:50.786Z,45.9369
2023-05-12T19:51:52.689Z,45.9593
2023-05-12T19:52:54.606Z,45.9730
2023-05-12T19:53:56.605Z,45.9772
2023-05-12T19:54:58.511Z,46.0461
2023-05-12T19:56:00.456Z,46.0994
2023-05-12T19:57:02.385Z,46.1250
2023-05-12T19:58:04.291Z,46.0610
2023-05-12T19:59:06.207Z,46.0415
2023-05-12T20:00:08.120Z,46.0685
2023-05-12T20:01:10.054Z,46.1526
2023-05-12T20:02:11.970Z,46.1145
2023-05-12T20:03:13.918Z,46.0358
2023-05-12T20:04:15.790Z,45.9565
2023-05-12T20:05:17.765Z,45.9919
2023-05-12T20:06:19.621Z,46.0611
2023-05-12T20:07:21.548Z,46.0601
2023-05-12T20:08:23.475Z,45.8959
2023-05-12T20:09:25.372Z,45.9587
2023-05-12T20:10:27.302Z,45.9855
2023-05-12T20:11:29.200Z,45.9736
2023-05-12T20:12:31.140Z,46.1123
2023-05-12T20:13:33.056Z,46.2540
2023-05-12T20:14:34.978Z,46.3753
2023-05-12T20:15:36.874Z,46.2411
2023-05-12T20:16:38.820Z,46.0947
2023-05-12T20:17:40.803Z,46.0091
2023-05-12T20:18:42.676Z,45.9883
2023-05-12T20:19:44.556Z,45.9981
2023-05-12T20:20:46.461Z,46.0786
2023-05-12T20:21:48.382Z,46.1547
2023-05-12T20:22:50.308Z,46.1930
2023-05-12T20:23:52.230Z,46.1655
2023-05-12T20:24:54.149Z,46.1876
2023-05-12T20:25:56.082Z,46.2158
2023-05-12T20:26:57.966Z,46.1422
2023-05-12T20:27:59.919Z,45.9898
2023-05-12T20:29:01.835Z,46.0617
2023-05-12T20:30:03.736Z,46.3148
2023-05-12T20:31:05.778Z,46.3679
2023-05-12T20:32:07.570Z,46.3850
2023-05-12T20:33:09.500Z,46.4298
2023-05-12T20:34:11.405Z,46.4490
2023-05-12T20:35:13.327Z,46.3481
2023-05-12T20:36:15.224Z,46.4442
2023-05-12T20:37:17.156Z,46.5021
2023-05-12T20:38:19.066Z,46.5731
2023-05-12T20:39:20.983Z,46.6014
2023-05-12T20:40:22.903Z,46.5019
2023-05-12T20:41:24.806Z,46.3966
2023-05-12T20:42:26.733Z,46.4524
2023-05-12T20:43:28.650Z,46.5679
2023-05-12T20:44:30.571Z,46.6788
2023-05-12T20:45:32.473Z,46.7259
2023-05-12T20:46:36.437Z,46.6418
2023-05-12T20:47:36.456Z,46.5946
2023-05-12T20:48:38.229Z,46.5277
2023-05-12T20:49:40.149Z,46.3659
2023-05-12T20:50:42.084Z,46.3926
2023-05-12T20:51:43.967Z,46.5388
2023-05-12T20:52:45.904Z,46.6136
2023-05-12T20:53:47.794Z,46.6790
2023-05-12T20:54:49.718Z,46.6979
2023-05-12T20:55:51.633Z,46.6198
2023-05-12T20:56:53.562Z,46.5862
2023-05-12T20:57:55.471Z,46.6296
2023-05-12T20:58:57.377Z,46.5565
2023-05-12T20:59:59.298Z,46.5452
2023-05-12T21:01:01.229Z,46.6025
2023-05-12T21:02:03.207Z,46.6007
2023-05-12T21:03:12.216Z,46.5752
2023-05-12T21:04:16.527Z,46.7551
2023-05-12T21:05:18.620Z,46.7914
2023-05-12T21:06:20.348Z,46.8075
2023-05-12T21:07:22.262Z,46.8537
2023-05-12T21:08:24.159Z,46.8691
2023-05-12T21:09:26.104Z,46.9028
2023-05-12T21:10:28.002Z,46.9431
2023-05-12T21:11:29.905Z,46.9064
2023-05-12T21:12:31.835Z,46.7871
2023-05-12T21:13:33.772Z,46.7772
2023-05-12T21:14:35.670Z,46.7887
2023-05-12T21:15:37.581Z,46.7587
2023-05-12T21:16:39.634Z,46.6459
2023-05-12T21:17:41.566Z,46.6194
2023-05-12T21:18:43.385Z,46.6967
2023-05-12T21:19:45.276Z,46.6853
2023-05-12T21:20:47.240Z,46.7238
2023-05-12T21:21:49.097Z,46.7473
2023-05-12T21:22:51.025Z,46.7749
2023-05-12T21:23:52.996Z,46.8546
2023-05-12T21:24:54.850Z,46.9095
2023-05-12T21:25:56.770Z,46.9610
2023-05-12T21:26:58.704Z,46.9275
2023-05-12T21:28:00.605Z,46.8616
2023-05-12T21:29:02.572Z,46.8844
2023-05-12T21:30:04.457Z,46.8967
2023-05-12T21:31:06.355Z,46.9903
2023-05-12T21:32:08.599Z,47.0414
2023-05-12T21:33:10.286Z,47.0087
2023-05-12T21:34:12.178Z,46.9638
2023-05-12T21:35:14.033Z,46.9926
2023-05-12T21:36:15.965Z,47.0378
2023-05-12T21:37:17.869Z,47.1566
2023-05-12T21:38:19.804Z,47.1306
2023-05-12T21:39:21.728Z,46.9950
2023-05-12T21:40:23.706Z,47.0049
2023-05-12T21:41:25.548Z,46.9999
2023-05-12T21:42:27.496Z,46.9812
2023-05-12T21:43:29.406Z,46.9639
2023-05-12T21:44:31.332Z,46.9265
2023-05-12T21:45:33.244Z,46.9337
2023-05-12T21:46:35.271Z,46.9544
2023-05-12T21:47:37.114Z,46.9912
2023-05-12T21:48:38.984Z,47.0153
2023-05-12T21:49:40.918Z,47.0582
2023-05-12T21:50:42.835Z,46.9601
2023-05-12T21:51:44.751Z,46.9950
2023-05-12T21:52:46.705Z,46.9832
2023-05-12T21:53:48.593Z,46.9987
2023-05-12T21:54:50.525Z,46.9609
2023-05-12T21:55:52.428Z,46.8789
2023-05-12T21:56:54.346Z,46.8914
2023-05-12T21:57:56.253Z,46.8611
2023-05-12T21:58:58.218Z,46.8251
2023-05-12T22:00:00.126Z,46.8924
2023-05-12T22:01:02.021Z,47.0280
2023-05-12T22:02:03.948Z,47.1436
2023-05-12T22:03:05.896Z,47.2246
2023-05-12T22:04:07.817Z,47.2267
2023-05-12T22:05:09.758Z,47.1118
2023-05-12T22:06:11.623Z,47.0599
2023-05-12T22:07:13.517Z,47.0373
2023-05-12T22:08:15.447Z,47.0836
2023-05-12T22:09:17.361Z,47.0347
2023-05-12T22:10:19.452Z,46.9683
2023-05-12T22:11:21.229Z,47.0003
2023-05-12T22:12:23.116Z,47.0113
2023-05-12T22:13:25.023Z,46.9365
2023-05-12T22:14:26.936Z,46.8136
2023-05-12T22:15:28.870Z,46.8611
2023-05-12T22:16:40.680Z,46.9530
2023-05-12T22:17:32.750Z,47.1094
2023-05-12T22:18:34.679Z,47.2159
2023-05-12T22:19:36.536Z,47.2551
2023-05-12T22:20:38.453Z,47.2518
2023-05-12T22:21:40.379Z,47.3236
2023-05-12T22:22:42.339Z,47.2930
2023-05-12T22:23:44.220Z,47.3050
2023-05-12T22:24:46.134Z,47.3095
2023-05-12T22:25:48.032Z,47.2252
2023-05-12T22:26:49.970Z,47.0996
2023-05-12T22:27:51.871Z,47.0036
2023-05-12T22:28:53.836Z,47.0831
2023-05-12T22:29:55.721Z,47.1851
2023-05-12T22:30:57.665Z,47.2398
2023-05-12T22:31:59.551Z,47.2762
2023-05-12T22:33:01.584Z,47.2328
2023-05-12T22:34:03.384Z,47.2954
2023-05-12T22:35:05.339Z,47.2505
2023-05-12T22:36:07.243Z,47.2372
2023-05-12T22:37:09.146Z,47.3160
2023-05-12T22:38:11.094Z,47.3713
2023-05-12T22:39:13.001Z,47.2543
2023-05-12T22:40:14.905Z,47.1831
2023-05-12T22:41:16.825Z,47.2286
2023-05-12T22:42:18.763Z,47.2283
2023-05-12T22:43:20.659Z,47.3386
2023-05-12T22:44:22.596Z,47.3561
2023-05-12T22:45:24.520Z,47.2167
2023-05-12T22:46:26.480Z,47.2418
2023-05-12T22:47:28.348Z,47.1575
2023-05-12T22:48:32.099Z,47.1444
2023-05-12T22:49:32.191Z,47.2368
2023-05-12T22:50:34.098Z,47.3037
2023-05-12T22:51:36.025Z,47.2984
2023-05-12T22:52:37.944Z,47.3284
2023-05-12T22:53:39.864Z,47.3237
2023-05-12T22:54:41.781Z,47.3129
2023-05-12T22:55:43.701Z,47.2400
2023-05-12T22:56:45.629Z,47.2398
2023-05-12T22:57:47.538Z,47.3910
2023-05-12T22:58:49.470Z,47.5380
2023-05-12T22:59:51.371Z,47.5691
2023-05-12T23:00:53.330Z,47.4098
2023-05-12T23:01:55.221Z,47.2456
2023-05-12T23:02:57.191Z,47.1539
2023-05-12T23:03:59.068Z,47.2346
2023-05-12T23:05:00.963Z,47.2936
2023-05-12T23:06:02.908Z,47.2929
2023-05-12T23:07:05.903Z,47.3086
2023-05-12T23:08:06.764Z,47.3825
2023-05-12T23:09:08.635Z,47.4988
2023-05-12T23:10:10.578Z,47.5571
2023-05-12T23:11:12.491Z,47.6161
2023-05-12T23:12:14.404Z,47.6733
2023-05-12T23:13:16.370Z,47.6882
2023-05-12T23:14:18.288Z,47.5549
2023-05-12T23:15:20.171Z,47.5397
2023-05-12T23:16:22.093Z,47.5412
2023-05-12T23:17:23.994Z,47.5430
2023-05-12T23:18:25.946Z,47.5780
2023-05-12T23:19:27.837Z,47.5670
2023-05-12T23:20:29.752Z,47.4902
2023-05-12T23:21:31.694Z,47.5520
2023-05-12T23:22:33.605Z,47.4965
2023-05-12T23:23:35.520Z,47.5409
2023-05-12T23:24:37.444Z,47.5108
2023-05-12T23:25:39.371Z,47.4602
2023-05-12T23:26:41.262Z,47.5135
2023-05-12T23:27:43.199Z,47.5612
2023-05-12T23:28:45.473Z,47.5800
2023-05-12T23:29:47.024Z,47.5348
2023-05-12T23:30:48.949Z,47.4284
2023-05-12T23:31:50.930Z,47.3734
2023-05-12T23:32:52.950Z,47.3714
2023-05-12T23:33:54.782Z,47.3697
2023-05-12T23:34:56.632Z,47.3043
2023-05-12T23:35:58.579Z,47.3272
2023-05-12T23:37:00.462Z,47.3931
2023-05-12T23:38:02.398Z,47.3734
2023-05-12T23:39:04.312Z,47.4739
2023-05-12T23:40:06.213Z,47.6246
2023-05-12T23:41:08.142Z,47.6505
2023-05-12T23:42:10.066Z,47.6063
2023-05-12T23:43:11.969Z,47.6530
2023-05-12T23:44:13.898Z,47.6571
2023-05-12T23:45:15.844Z,47.6022
2023-05-12T23:46:17.786Z,47.5787
2023-05-12T23:47:19.650Z,47.4447
2023-05-12T23:48:21.580Z,47.3878
2023-05-12T23:49:23.529Z,47.4884
2023-05-12T23:50:25.412Z,47.5667
2023-05-12T23:51:27.348Z,47.6488
2023-05-12T23:52:29.257Z,47.7501
2023-05-12T23:53:31.209Z,47.7270
2023-05-12T23:54:33.107Z,47.8171
2023-05-12T23:55:35.017Z,47.8690
2023-05-12T23:56:36.973Z,47.7792
2023-05-12T23:57:38.933Z,47.6902
2023-05-12T23:58:40.854Z,47.6499
2023-05-12T23:59:42.754Z,47.7802
